sensor_id;sensor_type;location;lat;lon;timestamp;pressure;altitude;pressure_sealevel;temperature;humidity
68594;BME280;55563;52.416;13.548;2023-06-10T00:01:45;101154.34;;;16.19;100.00
68594;BME280;55563;52.416;13.548;2023-06-10T00:03:47;101160.34;;;15.77;100.00
68594;BME280;55563;52.416;13.548;2023-06-10T00:05:48;101160.06;;;15.78;100.00
68594;BME280;55563;52.416;13.548;2023-06-10T00:07:49;101157.03;;;15.61;100.00
68594;BME280;55563;52.416;13.548;2023-06-10T00:09:50;101154.44;;;15.85;100.00
68594;BME280;55563;52.416;13.548;2023-06-10T00:11:51;101157.88;;;15.56;100.00
68594;BME280;55563;52.416;13.548;2023-06-10T00:13:52;101155.28;;;15.51;100.00
68594;BME280;55563;52.416;13.548;2023-06-10T00:15:52;101155.03;;;15.48;100.00
68594;BME280;55563;52.416;13.548;2023-06-10T00:17:53;101156.28;;;15.84;100.00
68594;BME280;55563;52.416;13.548;2023-06-10T00:19:55;101145.28;;;16.01;100.00
68594;BME280;55563;52.416;13.548;2023-06-10T00:21:57;101150.56;;;15.77;100.00
68594;BME280;55563;52.416;13.548;2023-06-10T00:23:58;101157.53;;;15.68;100.00
68594;BME280;55563;52.416;13.548;2023-06-10T00:26:03;101148.84;;;15.23;100.00
68594;BME280;55563;52.416;13.548;2023-06-10T00:28:05;101146.03;;;15.78;100.00
68594;BME280;55563;52.416;13.548;2023-06-10T00:30:06;101142.22;;;15.60;100.00
68594;BME280;55563;52.416;13.548;2023-06-10T00:32:07;101146.75;;;15.54;100.00
68594;BME280;55563;52.416;13.548;2023-06-10T00:34:09;101140.94;;;15.57;100.00
68594;BME280;55563;52.416;13.548;2023-06-10T00:36:10;101143.72;;;15.71;100.00
68594;BME280;55563;52.416;13.548;2023-06-10T00:38:12;101155.97;;;15.28;100.00
68594;BME280;55563;52.416;13.548;2023-06-10T00:40:13;101151.78;;;15.56;100.00
68594;BME280;55563;52.416;13.548;2023-06-10T00:42:14;101151.69;;;15.32;100.00
68594;BME280;55563;52.416;13.548;2023-06-10T00:44:15;101154.34;;;15.32;100.00
68594;BME280;55563;52.416;13.548;2023-06-10T00:46:16;101160.19;;;15.29;100.00
68594;BME280;55563;52.416;13.548;2023-06-10T00:48:18;101162.75;;;15.73;100.00
68594;BME280;55563;52.416;13.548;2023-06-10T00:50:20;101154.78;;;15.44;100.00
68594;BME280;55563;52.416;13.548;2023-06-10T00:52:21;101167.84;;;15.69;100.00
68594;BME280;55563;52.416;13.548;2023-06-10T00:54:22;101163.28;;;15.41;100.00
68594;BME280;55563;52.416;13.548;2023-06-10T00:56:23;101161.41;;;15.08;100.00
68594;BME280;55563;52.416;13.548;2023-06-10T00:58:24;101152.63;;;15.12;100.00
68594;BME280;55563;52.416;13.548;2023-06-10T01:00:26;101167.97;;;15.54;100.00
68594;BME280;55563;52.416;13.548;2023-06-10T01:02:27;101166.25;;;14.96;100.00
68594;BME280;55563;52.416;13.548;2023-06-10T01:04:28;101162.28;;;14.93;100.00
68594;BME280;55563;52.416;13.548;2023-06-10T01:09:09;101170.75;;;14.95;100.00
68594;BME280;55563;52.416;13.548;2023-06-10T01:11:15;101174.19;;;14.96;100.00
68594;BME280;55563;52.416;13.548;2023-06-10T01:13:18;101175.78;;;14.92;100.00
68594;BME280;55563;52.416;13.548;2023-06-10T01:15:20;101172.00;;;15.08;100.00
68594;BME280;55563;52.416;13.548;2023-06-10T01:17:22;101173.31;;;15.10;100.00
68594;BME280;55563;52.416;13.548;2023-06-10T01:19:23;101171.78;;;14.99;100.00
68594;BME280;55563;52.416;13.548;2023-06-10T01:21:25;101175.56;;;15.27;100.00
68594;BME280;55563;52.416;13.548;2023-06-10T01:23:26;101180.03;;;14.88;100.00
68594;BME280;55563;52.416;13.548;2023-06-10T01:25:29;101173.22;;;15.20;100.00
68594;BME280;55563;52.416;13.548;2023-06-10T01:27:33;101170.47;;;15.36;100.00
68594;BME280;55563;52.416;13.548;2023-06-10T01:29:44;101172.06;;;14.93;100.00
68594;BME280;55563;52.416;13.548;2023-06-10T01:31:51;101182.16;;;14.91;100.00
68594;BME280;55563;52.416;13.548;2023-06-10T01:33:56;101181.25;;;14.61;100.00
68594;BME280;55563;52.416;13.548;2023-06-10T01:35:58;101182.31;;;14.60;100.00
68594;BME280;55563;52.416;13.548;2023-06-10T01:38:00;101177.69;;;14.86;100.00
68594;BME280;55563;52.416;13.548;2023-06-10T01:40:03;101177.56;;;15.06;100.00
68594;BME280;55563;52.416;13.548;2023-06-10T01:42:06;101187.97;;;14.88;100.00
68594;BME280;55563;52.416;13.548;2023-06-10T01:44:10;101177.75;;;15.20;100.00
68594;BME280;55563;52.416;13.548;2023-06-10T01:46:15;101176.13;;;14.80;100.00
68594;BME280;55563;52.416;13.548;2023-06-10T01:48:16;101174.44;;;14.99;100.00
68594;BME280;55563;52.416;13.548;2023-06-10T01:50:17;101180.75;;;14.49;100.00
68594;BME280;55563;52.416;13.548;2023-06-10T01:52:18;101182.94;;;14.96;100.00
68594;BME280;55563;52.416;13.548;2023-06-10T01:54:18;101185.72;;;15.15;100.00
68594;BME280;55563;52.416;13.548;2023-06-10T01:56:20;101184.97;;;14.55;100.00
68594;BME280;55563;52.416;13.548;2023-06-10T01:58:21;101179.22;;;14.92;100.00
68594;BME280;55563;52.416;13.548;2023-06-10T02:00:22;101183.81;;;14.76;100.00
68594;BME280;55563;52.416;13.548;2023-06-10T02:02:23;101188.88;;;14.68;100.00
68594;BME280;55563;52.416;13.548;2023-06-10T02:04:25;101194.09;;;14.83;100.00
68594;BME280;55563;52.416;13.548;2023-06-10T02:06:26;101182.09;;;15.01;100.00
68594;BME280;55563;52.416;13.548;2023-06-10T02:08:27;101183.47;;;14.88;100.00
68594;BME280;55563;52.416;13.548;2023-06-10T02:10:28;101179.72;;;14.45;100.00
68594;BME280;55563;52.416;13.548;2023-06-10T02:12:31;101181.53;;;14.55;100.00
68594;BME280;55563;52.416;13.548;2023-06-10T02:14:32;101186.72;;;14.80;100.00
68594;BME280;55563;52.416;13.548;2023-06-10T02:16:33;101183.72;;;14.37;100.00
68594;BME280;55563;52.416;13.548;2023-06-10T02:18:34;101187.16;;;14.43;100.00
68594;BME280;55563;52.416;13.548;2023-06-10T02:20:34;101188.16;;;14.52;100.00
68594;BME280;55563;52.416;13.548;2023-06-10T02:22:37;101191.81;;;14.61;100.00
68594;BME280;55563;52.416;13.548;2023-06-10T02:24:38;101186.22;;;14.68;100.00
68594;BME280;55563;52.416;13.548;2023-06-10T02:26:39;101185.53;;;14.52;100.00
68594;BME280;55563;52.416;13.548;2023-06-10T02:28:44;101195.59;;;14.35;100.00
68594;BME280;55563;52.416;13.548;2023-06-10T02:30:49;101201.41;;;14.32;100.00
68594;BME280;55563;52.416;13.548;2023-06-10T02:32:50;101204.44;;;14.79;100.00
68594;BME280;55563;52.416;13.548;2023-06-10T02:34:54;101201.84;;;14.69;100.00
68594;BME280;55563;52.416;13.548;2023-06-10T02:36:57;101200.19;;;14.83;100.00
68594;BME280;55563;52.416;13.548;2023-06-10T02:38:58;101199.84;;;14.36;100.00
68594;BME280;55563;52.416;13.548;2023-06-10T02:40:59;101197.66;;;14.53;100.00
68594;BME280;55563;52.416;13.548;2023-06-10T02:43:00;101193.97;;;14.54;100.00
68594;BME280;55563;52.416;13.548;2023-06-10T02:45:01;101199.31;;;14.29;100.00
68594;BME280;55563;52.416;13.548;2023-06-10T02:47:09;101192.34;;;14.63;100.00
68594;BME280;55563;52.416;13.548;2023-06-10T02:49:12;101199.81;;;14.51;100.00
68594;BME280;55563;52.416;13.548;2023-06-10T02:51:13;101199.03;;;14.40;100.00
68594;BME280;55563;52.416;13.548;2023-06-10T02:53:18;101195.94;;;13.93;100.00
68594;BME280;55563;52.416;13.548;2023-06-10T02:55:23;101196.94;;;14.32;100.00
68594;BME280;55563;52.416;13.548;2023-06-10T02:57:29;101204.13;;;14.02;100.00
68594;BME280;55563;52.416;13.548;2023-06-10T02:59:30;101200.72;;;13.86;100.00
68594;BME280;55563;52.416;13.548;2023-06-10T03:01:31;101202.81;;;14.09;100.00
68594;BME280;55563;52.416;13.548;2023-06-10T03:03:38;101208.34;;;13.97;100.00
68594;BME280;55563;52.416;13.548;2023-06-10T03:05:44;101205.19;;;14.01;100.00
68594;BME280;55563;52.416;13.548;2023-06-10T03:07:45;101200.06;;;14.45;100.00
68594;BME280;55563;52.416;13.548;2023-06-10T03:09:49;101200.59;;;14.57;100.00
68594;BME280;55563;52.416;13.548;2023-06-10T03:11:50;101197.78;;;14.03;100.00
68594;BME280;55563;52.416;13.548;2023-06-10T03:13:51;101202.00;;;14.19;100.00
68594;BME280;55563;52.416;13.548;2023-06-10T03:15:53;101201.47;;;14.12;100.00
68594;BME280;55563;52.416;13.548;2023-06-10T03:17:56;101193.66;;;14.66;100.00
68594;BME280;55563;52.416;13.548;2023-06-10T03:19:57;101195.88;;;14.28;100.00
68594;BME280;55563;52.416;13.548;2023-06-10T03:22:14;101196.72;;;14.09;100.00
68594;BME280;55563;52.416;13.548;2023-06-10T03:24:23;101200.06;;;14.34;100.00
68594;BME280;55563;52.416;13.548;2023-06-10T03:26:26;101203.28;;;14.21;100.00
68594;BME280;55563;52.416;13.548;2023-06-10T03:28:30;101192.13;;;14.50;100.00
68594;BME280;55563;52.416;13.548;2023-06-10T03:30:31;101206.94;;;14.51;100.00
68594;BME280;55563;52.416;13.548;2023-06-10T03:32:33;101202.72;;;14.34;100.00
68594;BME280;55563;52.416;13.548;2023-06-10T03:34:34;101203.84;;;14.23;100.00
68594;BME280;55563;52.416;13.548;2023-06-10T03:36:36;101199.81;;;14.51;100.00
68594;BME280;55563;52.416;13.548;2023-06-10T03:38:38;101205.69;;;14.18;100.00
68594;BME280;55563;52.416;13.548;2023-06-10T03:40:40;101208.38;;;14.82;100.00
68594;BME280;55563;52.416;13.548;2023-06-10T03:42:41;101208.81;;;14.40;100.00
68594;BME280;55563;52.416;13.548;2023-06-10T03:44:44;101213.00;;;14.56;100.00
68594;BME280;55563;52.416;13.548;2023-06-10T03:46:44;101207.56;;;14.02;100.00
68594;BME280;55563;52.416;13.548;2023-06-10T03:48:46;101219.16;;;14.21;100.00
68594;BME280;55563;52.416;13.548;2023-06-10T03:50:49;101218.34;;;14.36;100.00
68594;BME280;55563;52.416;13.548;2023-06-10T03:52:51;101214.00;;;14.70;100.00
68594;BME280;55563;52.416;13.548;2023-06-10T03:54:55;101222.22;;;14.64;100.00
68594;BME280;55563;52.416;13.548;2023-06-10T03:56:55;101220.06;;;14.81;100.00
68594;BME280;55563;52.416;13.548;2023-06-10T03:58:57;101217.53;;;15.10;100.00
68594;BME280;55563;52.416;13.548;2023-06-10T04:00:57;101232.91;;;14.28;100.00
68594;BME280;55563;52.416;13.548;2023-06-10T04:03:07;101223.59;;;14.56;100.00
68594;BME280;55563;52.416;13.548;2023-06-10T04:05:13;101223.75;;;14.85;100.00
68594;BME280;55563;52.416;13.548;2023-06-10T04:07:14;101221.13;;;14.80;100.00
68594;BME280;55563;52.416;13.548;2023-06-10T04:09:15;101220.22;;;15.00;100.00
68594;BME280;55563;52.416;13.548;2023-06-10T04:11:17;101219.97;;;15.40;100.00
68594;BME280;55563;52.416;13.548;2023-06-10T04:13:19;101220.84;;;14.87;100.00
68594;BME280;55563;52.416;13.548;2023-06-10T04:15:27;101229.44;;;15.07;100.00
68594;BME280;55563;52.416;13.548;2023-06-10T04:17:28;101230.91;;;14.79;100.00
68594;BME280;55563;52.416;13.548;2023-06-10T04:19:29;101232.19;;;14.87;100.00
68594;BME280;55563;52.416;13.548;2023-06-10T04:21:32;101221.25;;;15.48;100.00
68594;BME280;55563;52.416;13.548;2023-06-10T04:23:33;101218.28;;;15.15;100.00
68594;BME280;55563;52.416;13.548;2023-06-10T04:25:34;101228.78;;;15.31;100.00
68594;BME280;55563;52.416;13.548;2023-06-10T04:27:35;101229.59;;;15.99;100.00
68594;BME280;55563;52.416;13.548;2023-06-10T04:29:36;101228.31;;;15.23;100.00
68594;BME280;55563;52.416;13.548;2023-06-10T04:31:37;101225.53;;;15.44;100.00
68594;BME280;55563;52.416;13.548;2023-06-10T04:33:39;101234.91;;;15.65;100.00
68594;BME280;55563;52.416;13.548;2023-06-10T04:35:40;101234.88;;;15.70;100.00
68594;BME280;55563;52.416;13.548;2023-06-10T04:37:44;101230.38;;;15.70;100.00
68594;BME280;55563;52.416;13.548;2023-06-10T04:39:45;101237.84;;;15.24;100.00
68594;BME280;55563;52.416;13.548;2023-06-10T04:41:46;101239.09;;;15.32;100.00
68594;BME280;55563;52.416;13.548;2023-06-10T04:43:47;101242.84;;;15.99;100.00
68594;BME280;55563;52.416;13.548;2023-06-10T04:45:48;101243.06;;;16.02;100.00
68594;BME280;55563;52.416;13.548;2023-06-10T04:47:49;101244.25;;;17.48;100.00
68594;BME280;55563;52.416;13.548;2023-06-10T04:49:50;101232.59;;;17.81;100.00
68594;BME280;55563;52.416;13.548;2023-06-10T04:51:52;101234.63;;;18.98;100.00
68594;BME280;55563;52.416;13.548;2023-06-10T04:53:53;101227.66;;;18.89;100.00
68594;BME280;55563;52.416;13.548;2023-06-10T04:55:54;101232.63;;;19.17;100.00
68594;BME280;55563;52.416;13.548;2023-06-10T04:57:55;101235.81;;;18.51;100.00
68594;BME280;55563;52.416;13.548;2023-06-10T04:59:55;101233.44;;;18.22;100.00
68594;BME280;55563;52.416;13.548;2023-06-10T05:01:56;101238.31;;;18.61;100.00
68594;BME280;55563;52.416;13.548;2023-06-10T05:03:57;101228.13;;;19.93;100.00
68594;BME280;55563;52.416;13.548;2023-06-10T05:05:58;101233.84;;;19.78;100.00
68594;BME280;55563;52.416;13.548;2023-06-10T05:07:58;101229.34;;;19.87;100.00
68594;BME280;55563;52.416;13.548;2023-06-10T05:09:59;101232.53;;;19.45;100.00
68594;BME280;55563;52.416;13.548;2023-06-10T05:12:00;101241.97;;;20.74;100.00
68594;BME280;55563;52.416;13.548;2023-06-10T05:14:01;101236.19;;;20.02;100.00
68594;BME280;55563;52.416;13.548;2023-06-10T05:16:03;101229.63;;;19.55;100.00
68594;BME280;55563;52.416;13.548;2023-06-10T05:18:04;101236.69;;;20.43;100.00
68594;BME280;55563;52.416;13.548;2023-06-10T05:20:05;101234.53;;;20.54;100.00
68594;BME280;55563;52.416;13.548;2023-06-10T05:22:06;101240.59;;;21.11;100.00
68594;BME280;55563;52.416;13.548;2023-06-10T05:24:07;101243.09;;;21.77;100.00
68594;BME280;55563;52.416;13.548;2023-06-10T05:26:08;101243.22;;;19.98;100.00
68594;BME280;55563;52.416;13.548;2023-06-10T05:28:09;101248.59;;;20.85;100.00
68594;BME280;55563;52.416;13.548;2023-06-10T05:30:11;101251.19;;;21.42;100.00
68594;BME280;55563;52.416;13.548;2023-06-10T05:32:11;101243.94;;;22.24;100.00
68594;BME280;55563;52.416;13.548;2023-06-10T05:34:12;101250.44;;;20.68;100.00
68594;BME280;55563;52.416;13.548;2023-06-10T05:36:13;101258.09;;;21.35;100.00
68594;BME280;55563;52.416;13.548;2023-06-10T05:38:13;101257.56;;;21.07;100.00
68594;BME280;55563;52.416;13.548;2023-06-10T05:40:14;101254.91;;;21.75;100.00
68594;BME280;55563;52.416;13.548;2023-06-10T05:42:15;101245.16;;;22.35;100.00
68594;BME280;55563;52.416;13.548;2023-06-10T05:44:15;101241.66;;;21.88;100.00
68594;BME280;55563;52.416;13.548;2023-06-10T05:46:16;101237.88;;;22.44;100.00
68594;BME280;55563;52.416;13.548;2023-06-10T05:48:17;101244.75;;;22.15;100.00
68594;BME280;55563;52.416;13.548;2023-06-10T05:50:18;101246.41;;;21.73;100.00
68594;BME280;55563;52.416;13.548;2023-06-10T05:52:18;101244.34;;;22.72;100.00
68594;BME280;55563;52.416;13.548;2023-06-10T05:54:19;101255.06;;;21.96;100.00
68594;BME280;55563;52.416;13.548;2023-06-10T05:56:20;101255.56;;;21.55;100.00
68594;BME280;55563;52.416;13.548;2023-06-10T05:58:23;101257.91;;;21.65;100.00
68594;BME280;55563;52.416;13.548;2023-06-10T06:00:24;101251.53;;;22.13;100.00
68594;BME280;55563;52.416;13.548;2023-06-10T06:02:25;101256.22;;;21.44;100.00
68594;BME280;55563;52.416;13.548;2023-06-10T06:04:25;101252.75;;;21.26;100.00
68594;BME280;55563;52.416;13.548;2023-06-10T06:06:26;101252.88;;;21.64;100.00
68594;BME280;55563;52.416;13.548;2023-06-10T06:08:26;101260.91;;;21.29;100.00
68594;BME280;55563;52.416;13.548;2023-06-10T06:10:27;101262.28;;;20.93;100.00
68594;BME280;55563;52.416;13.548;2023-06-10T06:12:28;101261.69;;;21.04;100.00
68594;BME280;55563;52.416;13.548;2023-06-10T06:14:30;101257.34;;;20.69;100.00
68594;BME280;55563;52.416;13.548;2023-06-10T06:16:32;101264.72;;;20.63;100.00
68594;BME280;55563;52.416;13.548;2023-06-10T06:18:33;101263.78;;;21.24;100.00
68594;BME280;55563;52.416;13.548;2023-06-10T06:20:33;101258.03;;;20.35;100.00
68594;BME280;55563;52.416;13.548;2023-06-10T06:22:34;101267.13;;;20.34;100.00
68594;BME280;55563;52.416;13.548;2023-06-10T06:24:35;101269.50;;;20.05;100.00
68594;BME280;55563;52.416;13.548;2023-06-10T06:26:36;101268.91;;;19.63;100.00
68594;BME280;55563;52.416;13.548;2023-06-10T06:28:36;101275.63;;;19.83;100.00
68594;BME280;55563;52.416;13.548;2023-06-10T06:30:37;101274.47;;;19.97;100.00
68594;BME280;55563;52.416;13.548;2023-06-10T06:32:38;101274.19;;;20.69;100.00
68594;BME280;55563;52.416;13.548;2023-06-10T06:34:38;101272.44;;;20.65;100.00
68594;BME280;55563;52.416;13.548;2023-06-10T06:36:39;101281.25;;;20.65;100.00
68594;BME280;55563;52.416;13.548;2023-06-10T06:38:40;101283.13;;;20.73;100.00
68594;BME280;55563;52.416;13.548;2023-06-10T06:40:40;101291.75;;;20.62;100.00
68594;BME280;55563;52.416;13.548;2023-06-10T06:42:41;101293.75;;;20.96;100.00
68594;BME280;55563;52.416;13.548;2023-06-10T06:44:50;101292.91;;;20.86;100.00
68594;BME280;55563;52.416;13.548;2023-06-10T06:46:50;101286.34;;;20.93;100.00
68594;BME280;55563;52.416;13.548;2023-06-10T06:48:51;101293.22;;;20.76;100.00
68594;BME280;55563;52.416;13.548;2023-06-10T06:50:52;101287.69;;;20.64;100.00
68594;BME280;55563;52.416;13.548;2023-06-10T06:52:53;101287.69;;;20.73;100.00
68594;BME280;55563;52.416;13.548;2023-06-10T06:54:53;101298.69;;;21.54;100.00
68594;BME280;55563;52.416;13.548;2023-06-10T06:56:54;101293.91;;;20.99;100.00
68594;BME280;55563;52.416;13.548;2023-06-10T06:58:55;101289.72;;;21.50;100.00
68594;BME280;55563;52.416;13.548;2023-06-10T07:00:55;101304.97;;;21.15;100.00
68594;BME280;55563;52.416;13.548;2023-06-10T07:02:57;101294.28;;;21.15;100.00
68594;BME280;55563;52.416;13.548;2023-06-10T07:04:59;101301.50;;;21.49;100.00
68594;BME280;55563;52.416;13.548;2023-06-10T07:07:00;101304.50;;;21.30;100.00
68594;BME280;55563;52.416;13.548;2023-06-10T07:09:00;101295.09;;;22.77;100.00
68594;BME280;55563;52.416;13.548;2023-06-10T07:11:01;101305.34;;;23.67;100.00
68594;BME280;55563;52.416;13.548;2023-06-10T07:13:02;101307.19;;;22.83;100.00
68594;BME280;55563;52.416;13.548;2023-06-10T07:15:03;101303.88;;;22.86;100.00
68594;BME280;55563;52.416;13.548;2023-06-10T07:17:04;101307.34;;;23.08;100.00
68594;BME280;55563;52.416;13.548;2023-06-10T07:19:04;101305.38;;;23.79;100.00
68594;BME280;55563;52.416;13.548;2023-06-10T07:21:05;101319.38;;;22.34;100.00
68594;BME280;55563;52.416;13.548;2023-06-10T07:23:10;101307.53;;;23.02;100.00
68594;BME280;55563;52.416;13.548;2023-06-10T07:25:11;101303.38;;;23.14;100.00
68594;BME280;55563;52.416;13.548;2023-06-10T07:27:12;101308.59;;;26.10;90.08
68594;BME280;55563;52.416;13.548;2023-06-10T07:29:13;101312.28;;;24.94;96.21
68594;BME280;55563;52.416;13.548;2023-06-10T07:31:13;101316.44;;;25.56;88.93
68594;BME280;55563;52.416;13.548;2023-06-10T07:33:14;101309.59;;;25.74;94.94
68594;BME280;55563;52.416;13.548;2023-06-10T07:35:15;101315.25;;;24.20;99.21
68594;BME280;55563;52.416;13.548;2023-06-10T07:37:16;101320.31;;;24.70;99.34
68594;BME280;55563;52.416;13.548;2023-06-10T07:39:17;101316.03;;;25.30;92.04
68594;BME280;55563;52.416;13.548;2023-06-10T07:41:17;101311.59;;;24.73;93.77
68594;BME280;55563;52.416;13.548;2023-06-10T07:43:18;101308.63;;;25.27;96.89
68594;BME280;55563;52.416;13.548;2023-06-10T07:45:19;101315.41;;;25.48;92.50
68594;BME280;55563;52.416;13.548;2023-06-10T07:47:19;101318.56;;;24.50;93.59
68594;BME280;55563;52.416;13.548;2023-06-10T07:49:20;101307.69;;;24.83;95.92
68594;BME280;55563;52.416;13.548;2023-06-10T07:51:21;101320.00;;;24.96;92.75
68594;BME280;55563;52.416;13.548;2023-06-10T07:53:22;101313.16;;;25.10;94.30
68594;BME280;55563;52.416;13.548;2023-06-10T07:55:23;101324.41;;;23.74;100.00
68594;BME280;55563;52.416;13.548;2023-06-10T07:57:26;101320.81;;;24.60;96.79
68594;BME280;55563;52.416;13.548;2023-06-10T07:59:26;101320.53;;;24.28;98.51
68594;BME280;55563;52.416;13.548;2023-06-10T08:01:27;101314.28;;;24.73;94.08
68594;BME280;55563;52.416;13.548;2023-06-10T08:03:28;101313.50;;;23.70;100.00
68594;BME280;55563;52.416;13.548;2023-06-10T08:05:28;101318.66;;;24.65;98.88
68594;BME280;55563;52.416;13.548;2023-06-10T08:07:29;101311.06;;;24.55;94.41
68594;BME280;55563;52.416;13.548;2023-06-10T08:09:31;101318.47;;;23.80;98.13
68594;BME280;55563;52.416;13.548;2023-06-10T08:11:31;101314.28;;;24.04;100.00
68594;BME280;55563;52.416;13.548;2023-06-10T08:13:32;101324.13;;;24.32;100.00
68594;BME280;55563;52.416;13.548;2023-06-10T08:15:33;101322.84;;;23.85;100.00
68594;BME280;55563;52.416;13.548;2023-06-10T08:17:34;101324.91;;;24.00;100.00
68594;BME280;55563;52.416;13.548;2023-06-10T08:19:35;101324.91;;;23.67;100.00
68594;BME280;55563;52.416;13.548;2023-06-10T08:21:35;101318.75;;;24.32;100.00
68594;BME280;55563;52.416;13.548;2023-06-10T08:23:39;101325.38;;;23.69;100.00
68594;BME280;55563;52.416;13.548;2023-06-10T08:25:40;101318.28;;;23.65;100.00
68594;BME280;55563;52.416;13.548;2023-06-10T08:27:41;101322.81;;;23.73;100.00
68594;BME280;55563;52.416;13.548;2023-06-10T08:29:41;101337.69;;;24.48;99.62
68594;BME280;55563;52.416;13.548;2023-06-10T08:31:43;101319.09;;;24.80;98.98
68594;BME280;55563;52.416;13.548;2023-06-10T08:33:44;101331.19;;;24.37;100.00
68594;BME280;55563;52.416;13.548;2023-06-10T08:35:44;101325.69;;;24.70;95.73
68594;BME280;55563;52.416;13.548;2023-06-10T08:37:45;101333.88;;;24.49;96.15
68594;BME280;55563;52.416;13.548;2023-06-10T08:39:46;101339.59;;;24.48;94.28
68594;BME280;55563;52.416;13.548;2023-06-10T08:44:29;101336.44;;;24.33;96.39
68594;BME280;55563;52.416;13.548;2023-06-10T08:46:31;101337.81;;;25.00;94.10
68594;BME280;55563;52.416;13.548;2023-06-10T08:48:34;101340.94;;;25.27;91.03
68594;BME280;55563;52.416;13.548;2023-06-10T08:50:37;101341.84;;;24.82;92.56
68594;BME280;55563;52.416;13.548;2023-06-10T08:52:42;101339.06;;;25.03;91.34
68594;BME280;55563;52.416;13.548;2023-06-10T08:54:52;101341.53;;;25.08;90.82
68594;BME280;55563;52.416;13.548;2023-06-10T08:56:55;101342.78;;;25.50;89.63
68594;BME280;55563;52.416;13.548;2023-06-10T08:58:58;101351.94;;;24.85;90.21
68594;BME280;55563;52.416;13.548;2023-06-10T09:00:59;101349.69;;;24.99;89.68
68594;BME280;55563;52.416;13.548;2023-06-10T09:03:00;101338.38;;;25.58;88.54
68594;BME280;55563;52.416;13.548;2023-06-10T09:05:02;101339.81;;;25.68;89.65
68594;BME280;55563;52.416;13.548;2023-06-10T09:07:03;101343.59;;;25.79;86.15
68594;BME280;55563;52.416;13.548;2023-06-10T09:09:06;101342.00;;;25.38;87.25
68594;BME280;55563;52.416;13.548;2023-06-10T09:11:07;101339.63;;;25.88;84.90
68594;BME280;55563;52.416;13.548;2023-06-10T09:13:08;101338.78;;;25.72;83.47
68594;BME280;55563;52.416;13.548;2023-06-10T09:15:09;101335.78;;;25.61;83.28
68594;BME280;55563;52.416;13.548;2023-06-10T09:17:10;101342.16;;;25.29;84.31
68594;BME280;55563;52.416;13.548;2023-06-10T09:19:11;101336.94;;;25.60;83.53
68594;BME280;55563;52.416;13.548;2023-06-10T09:21:14;101329.28;;;25.63;82.67
68594;BME280;55563;52.416;13.548;2023-06-10T09:23:15;101333.78;;;26.45;81.14
68594;BME280;55563;52.416;13.548;2023-06-10T09:25:17;101329.09;;;25.55;84.41
68594;BME280;55563;52.416;13.548;2023-06-10T09:27:19;101341.03;;;26.41;84.41
68594;BME280;55563;52.416;13.548;2023-06-10T09:29:19;101333.78;;;26.30;79.53
68594;BME280;55563;52.416;13.548;2023-06-10T09:31:20;101329.31;;;26.06;76.03
68594;BME280;55563;52.416;13.548;2023-06-10T09:33:26;101330.66;;;25.84;79.49
68594;BME280;55563;52.416;13.548;2023-06-10T09:35:29;101337.44;;;26.53;75.63
68594;BME280;55563;52.416;13.548;2023-06-10T09:37:30;101332.06;;;26.10;77.57
68594;BME280;55563;52.416;13.548;2023-06-10T09:39:30;101335.72;;;26.01;74.13
68594;BME280;55563;52.416;13.548;2023-06-10T09:41:32;101327.69;;;26.48;75.97
68594;BME280;55563;52.416;13.548;2023-06-10T09:43:43;101332.41;;;26.36;72.67
68594;BME280;55563;52.416;13.548;2023-06-10T09:45:47;101329.41;;;26.88;70.70
68594;BME280;55563;52.416;13.548;2023-06-10T09:47:53;101323.06;;;26.80;69.40
68594;BME280;55563;52.416;13.548;2023-06-10T09:49:54;101336.16;;;26.47;68.06
68594;BME280;55563;52.416;13.548;2023-06-10T09:51:55;101335.78;;;26.48;68.92
68594;BME280;55563;52.416;13.548;2023-06-10T09:53:55;101317.66;;;26.80;69.09
68594;BME280;55563;52.416;13.548;2023-06-10T09:55:57;101330.13;;;26.54;66.51
68594;BME280;55563;52.416;13.548;2023-06-10T09:57:58;101329.97;;;26.46;65.05
68594;BME280;55563;52.416;13.548;2023-06-10T09:59:59;101337.00;;;26.51;65.71
68594;BME280;55563;52.416;13.548;2023-06-10T10:02:24;101332.75;;;26.66;65.04
68594;BME280;55563;52.416;13.548;2023-06-10T10:04:25;101339.34;;;26.53;64.17
68594;BME280;55563;52.416;13.548;2023-06-10T10:06:26;101326.03;;;26.28;65.13
68594;BME280;55563;52.416;13.548;2023-06-10T10:08:27;101328.88;;;26.67;65.04
68594;BME280;55563;52.416;13.548;2023-06-10T10:10:29;101330.66;;;26.59;66.82
68594;BME280;55563;52.416;13.548;2023-06-10T10:12:29;101328.34;;;26.77;63.82
68594;BME280;55563;52.416;13.548;2023-06-10T10:14:31;101325.00;;;27.15;64.34
68594;BME280;55563;52.416;13.548;2023-06-10T10:16:36;101336.66;;;26.53;69.85
68594;BME280;55563;52.416;13.548;2023-06-10T10:18:43;101328.47;;;26.49;70.55
68594;BME280;55563;52.416;13.548;2023-06-10T10:20:47;101318.66;;;26.41;66.68
68594;BME280;55563;52.416;13.548;2023-06-10T10:22:50;101336.72;;;26.72;67.58
68594;BME280;55563;52.416;13.548;2023-06-10T10:24:56;101342.19;;;26.13;67.36
68594;BME280;55563;52.416;13.548;2023-06-10T10:26:59;101333.72;;;26.42;67.27
68594;BME280;55563;52.416;13.548;2023-06-10T10:29:23;101329.34;;;25.78;65.85